Berettyoujfalu, Hungary
Current Conditions -  °F | °C
As of 9:15 AM on Wednesday 22 Oct 2014 (Local Time) from LHDC Reporting Station
Light Rain Light Rain  
Wind Chill: 52°   Ceiling: 2600
Heat Index: 52°   Visibility: 2.8mi
Dew Point: 52°   Wind: 10mph
Humidity: 100%   Direction: 60°ENE
Pressure: 29.53"   Gusts: NA
Location:  47.23°N, 21.54°E
Report Text: LHDC 220715Z 06009KT 4500 -RA BKN026 11/11 Q1000 BECMG 7000 NSW
Loading
Personal Weather Stations






























Interactive Weather Map
Tropical Storm Tracking
New forecast layout! Learn more

10-Day Weather Forecast

Advertisements
Track Severe Weather on mobile